createdAt,value
2023-04-28T00:00:14.783Z,0.96
2023-04-28T00:03:03.156Z,0.96
2023-04-28T00:05:31.416Z,0.98
2023-04-28T00:07:59.703Z,0.97
2023-04-28T00:10:28.094Z,0.94
2023-04-28T00:12:56.342Z,0.91
2023-04-28T00:15:24.627Z,0.89
2023-04-28T00:17:53.645Z,0.83
2023-04-28T00:20:21.979Z,0.79
2023-04-28T00:22:50.768Z,0.77
2023-04-28T00:25:19.207Z,0.76
2023-04-28T00:27:47.460Z,0.69
2023-04-28T00:30:15.958Z,0.62
2023-04-28T00:32:44.251Z,0.64
2023-04-28T00:35:12.877Z,0.68
2023-04-28T00:37:41.247Z,0.71
2023-04-28T00:40:09.701Z,0.78
2023-04-28T00:42:38.302Z,0.85
2023-04-28T00:45:07.508Z,0.81
2023-04-28T00:47:36.674Z,0.78
2023-04-28T00:50:08.384Z,0.73
2023-04-28T00:52:37.227Z,0.68
2023-04-28T00:55:05.754Z,0.60
2023-04-28T00:57:34.384Z,0.54
2023-04-28T01:00:03.492Z,0.45
2023-04-28T01:02:32.147Z,0.41
2023-04-28T01:05:00.591Z,0.37
2023-04-28T01:07:29.204Z,0.34
2023-04-28T01:09:57.705Z,0.30
2023-04-28T01:12:30.835Z,0.26
2023-04-28T01:14:59.932Z,0.20
2023-04-28T01:17:28.844Z,0.16
2023-04-28T01:19:57.238Z,0.11
2023-04-28T01:22:25.498Z,0.05
2023-04-28T01:24:53.914Z,0.01
2023-04-28T01:27:23.628Z,-0.05
2023-04-28T01:29:52.026Z,-0.08
2023-04-28T01:32:20.347Z,-0.13
2023-04-28T01:34:48.496Z,-0.13
2023-04-28T01:37:16.645Z,-0.09
2023-04-28T01:39:44.756Z,-0.04
2023-04-28T01:42:12.803Z,0.01
2023-04-28T01:44:41.339Z,0.06
2023-04-28T01:47:11.203Z,0.16
2023-04-28T01:49:39.269Z,0.24
2023-04-28T01:52:09.148Z,0.29
2023-04-28T01:54:37.777Z,0.32
2023-04-28T01:57:06.219Z,0.34
2023-04-28T01:59:34.513Z,0.33
2023-04-28T02:02:02.905Z,0.30
2023-04-28T02:04:31.204Z,0.28
2023-04-28T02:06:59.821Z,0.26
2023-04-28T02:09:28.080Z,0.22
2023-04-28T02:11:57.974Z,0.17
2023-04-28T02:14:26.210Z,0.10
2023-04-28T02:16:54.419Z,0.07
2023-04-28T02:19:22.687Z,0.03
2023-04-28T02:21:51.009Z,0.01
2023-04-28T02:24:19.163Z,-0.04
2023-04-28T02:26:47.318Z,-0.07
2023-04-28T02:29:15.695Z,-0.10
2023-04-28T02:31:43.890Z,-0.15
2023-04-28T02:34:14.716Z,-0.19
2023-04-28T02:36:43.098Z,-0.25
2023-04-28T02:39:11.145Z,-0.23
2023-04-28T02:41:39.282Z,-0.21
2023-04-28T02:44:07.438Z,-0.18
2023-04-28T02:46:36.146Z,-0.12
2023-04-28T02:49:05.598Z,-0.05
2023-04-28T02:51:33.746Z,0.02
2023-04-28T02:54:02.000Z,0.03
2023-04-28T02:56:30.296Z,0.03
2023-04-28T02:58:58.715Z,0.05
2023-04-28T03:01:27.062Z,0.03
2023-04-28T03:03:55.451Z,0.04
2023-04-28T03:06:23.616Z,0.01
2023-04-28T03:08:51.947Z,-0.06
2023-04-28T03:11:20.090Z,-0.10
2023-04-28T03:13:48.259Z,-0.16
2023-04-28T03:16:16.794Z,-0.20
2023-04-28T03:18:45.178Z,-0.22
2023-04-28T03:21:13.271Z,-0.24
2023-04-28T03:23:41.421Z,-0.28
2023-04-28T03:26:09.848Z,-0.30
2023-04-28T03:28:38.194Z,-0.26
2023-04-28T03:31:06.449Z,-0.22
2023-04-28T03:33:34.671Z,-0.14
2023-04-28T03:36:03.320Z,-0.03
2023-04-28T03:38:31.662Z,0.08
2023-04-28T03:41:00.637Z,0.13
2023-04-28T03:43:37.511Z,0.13
2023-04-28T03:46:37.932Z,0.19
2023-04-28T03:49:06.640Z,0.26
2023-04-28T03:51:34.842Z,0.28
2023-04-28T03:54:03.544Z,0.30
2023-04-28T03:56:31.887Z,0.33
2023-04-28T03:59:02.205Z,0.36
2023-04-28T04:01:30.268Z,0.40
2023-04-28T04:03:58.834Z,0.44
2023-04-28T04:06:27.268Z,0.47
2023-04-28T04:08:55.648Z,0.48
2023-04-28T04:11:23.930Z,0.52
2023-04-28T04:13:52.211Z,0.47
2023-04-28T04:16:22.065Z,0.47
2023-04-28T04:18:50.477Z,0.57
2023-04-28T04:21:24.620Z,0.69
2023-04-28T04:23:53.026Z,0.75
2023-04-28T04:26:21.254Z,0.84
2023-04-28T04:28:50.038Z,0.96
2023-04-28T04:31:19.851Z,1.08
2023-04-28T04:33:48.568Z,1.17
2023-04-28T04:36:16.860Z,1.26
2023-04-28T04:38:45.081Z,1.36
2023-04-28T04:41:17.058Z,1.44
2023-04-28T04:43:45.387Z,1.50
2023-04-28T04:46:13.727Z,1.53
2023-04-28T04:48:41.836Z,1.57
2023-04-28T04:51:10.069Z,1.64
2023-04-28T04:53:38.406Z,1.65
2023-04-28T04:56:06.906Z,1.58
2023-04-28T04:58:35.745Z,1.69
2023-04-28T05:01:29.925Z,1.80
2023-04-28T05:03:58.543Z,1.93
2023-04-28T05:06:26.818Z,2.03
2023-04-28T05:08:56.733Z,2.10
2023-04-28T05:11:25.055Z,2.14
2023-04-28T05:13:53.979Z,2.21
2023-04-28T05:16:22.347Z,2.28
2023-04-28T05:19:03.747Z,2.33
2023-04-28T05:21:32.825Z,2.44
2023-04-28T05:24:01.054Z,2.57
2023-04-28T05:26:29.472Z,2.71
2023-04-28T05:29:01.040Z,2.79
2023-04-28T05:31:29.600Z,2.80
2023-04-28T05:33:58.996Z,2.87
2023-04-28T05:36:27.416Z,2.99
2023-04-28T05:38:55.896Z,3.08
2023-04-28T05:41:24.115Z,3.18
2023-04-28T05:43:52.294Z,3.28
2023-04-28T05:46:30.187Z,3.37
2023-04-28T05:49:00.027Z,3.44
2023-04-28T05:51:30.480Z,3.48
2023-04-28T05:53:58.724Z,3.48
2023-04-28T05:56:27.844Z,3.48
2023-04-28T05:58:56.191Z,3.54
2023-04-28T06:01:24.239Z,3.60
2023-04-28T06:03:54.153Z,3.70
2023-04-28T06:06:22.747Z,3.76
2023-04-28T06:08:50.910Z,3.85
2023-04-28T06:11:22.421Z,3.94
2023-04-28T06:13:51.123Z,4.05
2023-04-28T06:16:20.196Z,4.11
2023-04-28T06:18:49.809Z,4.20
2023-04-28T06:21:19.661Z,4.38
2023-04-28T06:23:47.791Z,4.53
2023-04-28T06:26:18.104Z,4.67
2023-04-28T06:28:46.648Z,4.73
2023-04-28T06:31:14.918Z,4.79
2023-04-28T06:33:43.046Z,4.85
2023-04-28T06:36:14.237Z,4.80
2023-04-28T06:38:43.968Z,4.73
2023-04-28T06:41:12.102Z,4.71
2023-04-28T06:43:41.303Z,4.68
2023-04-28T06:46:12.475Z,4.60
2023-04-28T06:48:41.005Z,4.52
2023-04-28T06:51:09.541Z,4.40
2023-04-28T06:53:37.903Z,4.36
2023-04-28T06:56:11.185Z,4.37
2023-04-28T06:58:40.131Z,4.41
2023-04-28T07:01:08.292Z,4.42
2023-04-28T07:03:36.524Z,4.44
2023-04-28T07:06:04.889Z,4.47
2023-04-28T07:08:33.049Z,4.48
2023-04-28T07:11:04.841Z,4.45
2023-04-28T07:13:33.560Z,4.48
2023-04-28T07:16:02.266Z,4.53
2023-04-28T07:18:30.613Z,4.53
2023-04-28T07:20:58.738Z,4.55
2023-04-28T07:23:26.953Z,4.61
2023-04-28T07:25:55.251Z,4.65
2023-04-28T07:28:23.342Z,4.75
2023-04-28T07:30:51.420Z,4.89
2023-04-28T07:33:19.526Z,4.99
2023-04-28T07:35:48.285Z,5.09
2023-04-28T07:38:17.040Z,5.20
2023-04-28T07:40:45.209Z,5.18
2023-04-28T07:43:13.901Z,5.22
2023-04-28T07:45:45.830Z,5.29
2023-04-28T07:48:14.206Z,5.16
2023-04-28T07:50:42.459Z,5.13
2023-04-28T07:53:10.785Z,5.19
2023-04-28T07:55:38.946Z,5.26
2023-04-28T07:58:07.201Z,5.31
2023-04-28T08:00:35.379Z,5.35
2023-04-28T08:03:03.840Z,5.39
2023-04-28T08:05:32.526Z,5.38
2023-04-28T08:08:00.724Z,5.38
2023-04-28T08:10:29.084Z,5.39
2023-04-28T08:12:57.187Z,5.45
2023-04-28T08:15:27.030Z,5.49
2023-04-28T08:17:55.320Z,5.50
2023-04-28T08:20:24.849Z,5.52
2023-04-28T08:22:53.098Z,5.56
2023-04-28T08:25:21.245Z,5.60
2023-04-28T08:27:49.525Z,5.63
2023-04-28T08:30:17.809Z,5.65
2023-04-28T08:32:46.385Z,5.69
2023-04-28T08:35:15.457Z,5.76
2023-04-28T08:37:43.743Z,5.83
2023-04-28T08:40:12.013Z,5.94
2023-04-28T08:42:40.226Z,5.99
2023-04-28T08:45:08.821Z,6.02
2023-04-28T08:47:38.618Z,6.14
2023-04-28T08:50:10.033Z,6.26
2023-04-28T08:52:39.050Z,6.34
2023-04-28T08:55:08.643Z,6.45
2023-04-28T08:57:48.339Z,6.51
2023-04-28T09:00:16.625Z,6.41
2023-04-28T09:02:44.898Z,6.38
2023-04-28T09:05:14.322Z,6.44
2023-04-28T09:07:45.634Z,6.48
2023-04-28T09:10:21.462Z,6.53
2023-04-28T09:12:52.188Z,6.54
2023-04-28T09:15:27.923Z,6.60
2023-04-28T09:17:56.100Z,6.62
2023-04-28T09:20:25.409Z,6.69
2023-04-28T09:22:54.392Z,6.68
2023-04-28T09:25:23.717Z,6.77
2023-04-28T09:27:51.903Z,6.87
2023-04-28T09:30:20.658Z,6.90
2023-04-28T09:33:04.175Z,7.02
2023-04-28T09:35:42.438Z,7.09
2023-04-28T09:38:10.590Z,7.32
2023-04-28T09:40:51.518Z,7.80
2023-04-28T09:43:30.585Z,7.99
2023-04-28T09:46:07.766Z,7.91
2023-04-28T09:48:38.210Z,7.80
2023-04-28T09:51:07.982Z,7.76
2023-04-28T09:53:36.236Z,7.71
2023-04-28T09:56:05.487Z,7.74
2023-04-28T09:58:35.447Z,7.65
2023-04-28T10:01:06.203Z,7.67
2023-04-28T10:03:34.733Z,7.82
2023-04-28T10:06:03.103Z,7.93
2023-04-28T10:08:31.257Z,8.07
2023-04-28T10:10:59.928Z,8.22
2023-04-28T10:13:28.135Z,8.33
2023-04-28T10:15:58.467Z,8.39
2023-04-28T10:18:27.043Z,8.33
2023-04-28T10:20:59.134Z,8.60
2023-04-28T10:23:35.036Z,8.79
2023-04-28T10:26:04.160Z,8.86
2023-04-28T10:28:32.324Z,8.86
2023-04-28T10:31:12.176Z,8.80
2023-04-28T10:33:41.188Z,8.74
2023-04-28T10:36:09.794Z,8.86
2023-04-28T10:39:02.925Z,8.97
2023-04-28T10:41:34.151Z,9.12
2023-04-28T10:44:22.162Z,9.20
2023-04-28T10:47:00.488Z,9.42
2023-04-28T10:49:48.966Z,9.58
2023-04-28T10:52:38.165Z,9.69
2023-04-28T10:55:25.035Z,9.81
2023-04-28T10:58:12.118Z,9.95
2023-04-28T11:00:40.547Z,9.83
2023-04-28T11:03:08.897Z,9.85
2023-04-28T11:05:37.344Z,9.67
2023-04-28T11:08:24.012Z,9.71
2023-04-28T11:11:10.589Z,9.83
2023-04-28T11:13:41.229Z,9.85
2023-04-28T11:16:10.670Z,10.02
2023-04-28T11:18:59.080Z,10.19
2023-04-28T11:21:28.486Z,10.41
2023-04-28T11:23:57.716Z,10.59
2023-04-28T11:26:26.256Z,10.94
2023-04-28T11:28:55.823Z,11.42
2023-04-28T11:31:25.129Z,11.74
2023-04-28T11:33:55.856Z,11.61
2023-04-28T11:36:51.733Z,11.72
2023-04-28T11:39:38.810Z,12.06
2023-04-28T11:42:10.617Z,12.45
2023-04-28T11:44:38.715Z,12.65
2023-04-28T11:47:07.282Z,12.87
2023-04-28T11:49:43.520Z,13.03
2023-04-28T11:52:12.126Z,12.97
2023-04-28T11:54:42.621Z,13.09
2023-04-28T11:57:17.376Z,13.18
2023-04-28T11:59:46.505Z,13.29
2023-04-28T12:02:15.066Z,13.25
2023-04-28T12:04:44.316Z,12.93
2023-04-28T12:07:16.432Z,13.01
2023-04-28T12:09:45.886Z,12.90
2023-04-28T12:12:14.886Z,13.04
2023-04-28T12:14:56.387Z,13.23
2023-04-28T12:17:25.777Z,13.42
2023-04-28T12:19:54.524Z,13.60
2023-04-28T12:22:22.714Z,13.67
2023-04-28T12:25:03.203Z,13.42
2023-04-28T12:27:32.351Z,13.33
2023-04-28T12:30:00.506Z,13.32
2023-04-28T12:32:43.172Z,13.33
2023-04-28T12:35:11.706Z,13.48
2023-04-28T12:37:41.504Z,13.62
2023-04-28T12:40:10.757Z,13.78
2023-04-28T12:42:38.862Z,13.85
2023-04-28T12:45:07.319Z,13.78
2023-04-28T12:47:36.883Z,13.73
2023-04-28T12:50:05.573Z,13.80
2023-04-28T12:52:35.702Z,13.78
2023-04-28T12:55:04.211Z,13.77
2023-04-28T12:57:32.302Z,13.73
2023-04-28T13:00:00.360Z,13.87
2023-04-28T13:02:28.635Z,13.91
2023-04-28T13:04:56.918Z,13.42
2023-04-28T13:07:25.271Z,13.53
2023-04-28T13:09:53.357Z,13.27
2023-04-28T13:12:21.574Z,13.28
2023-04-28T13:14:50.070Z,13.34
2023-04-28T13:17:18.255Z,13.38
2023-04-28T13:19:46.662Z,13.38
2023-04-28T13:22:15.899Z,13.27
2023-04-28T13:24:44.560Z,13.48
2023-04-28T13:27:12.879Z,13.35
2023-04-28T13:29:41.383Z,13.34
2023-04-28T13:32:09.493Z,13.38
2023-04-28T13:34:38.280Z,13.52
2023-04-28T13:37:06.351Z,13.62
2023-04-28T13:39:34.703Z,13.57
2023-04-28T13:42:02.925Z,13.44
2023-04-28T13:44:30.961Z,13.51
2023-04-28T13:46:59.448Z,13.56
2023-04-28T13:49:27.538Z,13.57
2023-04-28T13:51:56.483Z,13.55
2023-04-28T13:54:24.688Z,13.64
2023-04-28T13:56:52.874Z,13.68
2023-04-28T13:59:21.006Z,13.42
2023-04-28T14:01:49.243Z,13.49
2023-04-28T14:04:17.621Z,13.49
2023-04-28T14:06:46.151Z,13.56
2023-04-28T14:09:14.429Z,13.62
2023-04-28T14:11:42.838Z,13.60
2023-04-28T14:14:10.979Z,13.59
2023-04-28T14:16:39.167Z,13.59
2023-04-28T14:19:07.450Z,13.52
2023-04-28T14:21:35.558Z,13.08
2023-04-28T14:24:03.676Z,13.06
2023-04-28T14:26:31.902Z,13.09
2023-04-28T14:29:00.716Z,13.17
2023-04-28T14:31:29.179Z,13.12
2023-04-28T14:33:57.460Z,13.10
2023-04-28T14:36:26.152Z,13.10
2023-04-28T14:38:54.349Z,13.06
2023-04-28T14:41:22.466Z,13.02
2023-04-28T14:43:50.792Z,12.90
2023-04-28T14:46:23.016Z,12.69
2023-04-28T14:48:51.329Z,12.58
2023-04-28T14:51:19.514Z,12.48
2023-04-28T14:53:48.586Z,12.52
2023-04-28T14:56:18.912Z,12.35
2023-04-28T14:58:47.966Z,12.46
2023-04-28T15:01:16.170Z,12.54
2023-04-28T15:03:44.601Z,12.59
2023-04-28T15:06:13.420Z,12.50
2023-04-28T15:08:41.618Z,12.55
2023-04-28T15:11:09.901Z,12.57
2023-04-28T15:13:39.145Z,12.40
2023-04-28T15:16:09.083Z,12.34
2023-04-28T15:18:37.215Z,12.32
2023-04-28T15:21:06.384Z,12.32
2023-04-28T15:23:34.489Z,12.32
2023-04-28T15:26:02.638Z,12.19
2023-04-28T15:28:31.481Z,12.14
2023-04-28T15:30:59.640Z,12.06
2023-04-28T15:33:28.221Z,11.86
2023-04-28T15:35:56.532Z,11.65
2023-04-28T15:38:24.716Z,11.52
2023-04-28T15:40:53.314Z,11.45
2023-04-28T15:43:21.393Z,11.41
2023-04-28T15:45:49.615Z,11.38
2023-04-28T15:48:18.069Z,11.33
2023-04-28T15:50:46.699Z,11.28
2023-04-28T15:53:15.639Z,11.21
2023-04-28T15:55:44.414Z,11.12
2023-04-28T15:58:12.545Z,11.05
2023-04-28T16:00:42.305Z,10.98
2023-04-28T16:03:10.586Z,10.91
2023-04-28T16:05:39.183Z,10.77
2023-04-28T16:08:07.346Z,10.66
2023-04-28T16:10:35.555Z,10.55
2023-04-28T16:13:05.380Z,10.40
2023-04-28T16:15:34.468Z,10.26
2023-04-28T16:18:02.691Z,10.02
2023-04-28T16:20:30.882Z,9.92
2023-04-28T16:22:59.075Z,9.83
2023-04-28T16:25:27.274Z,9.64
2023-04-28T16:27:55.403Z,9.53
2023-04-28T16:30:23.590Z,9.42
2023-04-28T16:32:53.314Z,9.30
2023-04-28T16:35:21.852Z,9.18
2023-04-28T16:37:49.897Z,9.07
2023-04-28T16:40:17.991Z,8.94
2023-04-28T16:42:46.309Z,8.82
2023-04-28T16:45:14.688Z,8.71
2023-04-28T16:47:43.507Z,8.60
2023-04-28T16:50:12.356Z,8.49
2023-04-28T16:52:40.523Z,8.36
2023-04-28T16:55:08.825Z,8.22
2023-04-28T16:57:36.963Z,8.06
2023-04-28T17:00:06.310Z,7.92
2023-04-28T17:02:34.722Z,7.78
2023-04-28T17:05:03.212Z,7.63
2023-04-28T17:07:31.383Z,7.49
2023-04-28T17:09:59.508Z,7.33
2023-04-28T17:12:27.750Z,7.17
2023-04-28T17:14:55.881Z,7.01
2023-04-28T17:17:23.977Z,6.84
2023-04-28T17:19:52.825Z,6.70
2023-04-28T17:22:21.430Z,6.53
2023-04-28T17:24:49.573Z,6.36
2023-04-28T17:27:17.742Z,6.20
2023-04-28T17:29:45.968Z,6.03
2023-04-28T17:32:14.176Z,5.87
2023-04-28T17:34:42.260Z,5.75
2023-04-28T17:37:10.394Z,5.62
2023-04-28T17:39:38.960Z,5.49
2023-04-28T17:42:07.194Z,5.36
2023-04-28T17:44:35.854Z,5.24
2023-04-28T17:47:04.292Z,5.13
2023-04-28T17:49:32.522Z,5.03
2023-04-28T17:52:00.623Z,4.93
2023-04-28T17:54:28.849Z,4.84
2023-04-28T17:56:57.283Z,4.72
2023-04-28T17:59:25.666Z,4.63
2023-04-28T18:01:56.926Z,4.54
2023-04-28T18:04:26.065Z,4.45
2023-04-28T18:06:54.152Z,4.38
2023-04-28T18:09:22.318Z,4.30
2023-04-28T18:11:50.374Z,4.22
2023-04-28T18:14:18.544Z,4.12
2023-04-28T18:16:47.968Z,4.05
2023-04-28T18:19:16.421Z,3.99
2023-04-28T18:21:44.599Z,3.90
2023-04-28T18:24:12.790Z,3.83
2023-04-28T18:26:40.949Z,3.76
2023-04-28T18:29:09.117Z,3.71
2023-04-28T18:31:37.512Z,3.63
2023-04-28T18:34:05.757Z,3.56
2023-04-28T18:36:36.987Z,3.50
2023-04-28T18:39:06.386Z,3.44
2023-04-28T18:41:36.986Z,3.37
2023-04-28T18:44:05.326Z,3.29
2023-04-28T18:46:33.817Z,3.20
2023-04-28T18:49:06.717Z,3.13
2023-04-28T18:51:35.152Z,3.05
2023-04-28T18:54:04.784Z,2.94
2023-04-28T18:56:32.928Z,2.86
2023-04-28T18:59:01.100Z,2.78
2023-04-28T19:01:29.420Z,2.70
2023-04-28T19:03:58.689Z,2.63
2023-04-28T19:06:27.044Z,2.56
2023-04-28T19:08:56.316Z,2.49
2023-04-28T19:11:24.759Z,2.42
2023-04-28T19:13:54.112Z,2.35
2023-04-28T19:16:22.729Z,2.27
2023-04-28T19:18:50.901Z,2.20
2023-04-28T19:21:19.035Z,2.12
2023-04-28T19:23:48.556Z,2.03
2023-04-28T19:26:16.836Z,1.94
2023-04-28T19:28:45.073Z,1.87
2023-04-28T19:31:13.367Z,1.82
2023-04-28T19:33:41.583Z,1.77
2023-04-28T19:36:10.082Z,1.73
2023-04-28T19:38:40.458Z,1.69
2023-04-28T19:41:08.622Z,1.63
2023-04-28T19:43:37.390Z,1.56
2023-04-28T19:46:05.811Z,1.49
2023-04-28T19:48:33.909Z,1.42
2023-04-28T19:51:01.960Z,1.36
2023-04-28T19:53:30.049Z,1.33
2023-04-28T19:56:01.095Z,1.31
2023-04-28T19:58:29.210Z,1.31
2023-04-28T20:00:58.457Z,1.33
2023-04-28T20:03:26.827Z,1.35
2023-04-28T20:05:55.086Z,1.37
2023-04-28T20:08:25.635Z,1.38
2023-04-28T20:10:54.934Z,1.37
2023-04-28T20:13:23.179Z,1.36
2023-04-28T20:15:51.765Z,1.35
2023-04-28T20:18:20.137Z,1.31
2023-04-28T20:20:48.302Z,1.23
2023-04-28T20:23:16.500Z,1.13
2023-04-28T20:25:44.579Z,1.06
2023-04-28T20:28:12.809Z,0.99
2023-04-28T20:30:42.214Z,0.90
2023-04-28T20:33:10.661Z,0.80
2023-04-28T20:35:38.909Z,0.70
2023-04-28T20:38:07.622Z,0.59
2023-04-28T20:40:36.756Z,0.50
2023-04-28T20:43:04.844Z,0.42
2023-04-28T20:45:32.982Z,0.33
2023-04-28T20:48:01.127Z,0.24
2023-04-28T20:50:33.433Z,0.15
2023-04-28T20:53:01.816Z,0.08
2023-04-28T20:55:30.097Z,-0.00
2023-04-28T20:57:58.340Z,-0.06
2023-04-28T21:00:26.370Z,-0.09
2023-04-28T21:02:54.683Z,-0.09
2023-04-28T21:05:23.902Z,-0.09
2023-04-28T21:07:52.218Z,-0.07
2023-04-28T21:10:20.456Z,-0.05
2023-04-28T21:12:49.010Z,-0.05
2023-04-28T21:15:17.298Z,-0.07
2023-04-28T21:17:45.639Z,-0.09
2023-04-28T21:20:14.872Z,-0.12
2023-04-28T21:22:43.122Z,-0.17
2023-04-28T21:25:11.285Z,-0.27
2023-04-28T21:27:39.541Z,-0.33
2023-04-28T21:30:08.067Z,-0.39
2023-04-28T21:32:36.165Z,-0.44
2023-04-28T21:35:04.768Z,-0.50
2023-04-28T21:37:33.029Z,-0.55
2023-04-28T21:40:02.073Z,-0.60
2023-04-28T21:42:32.194Z,-0.66
2023-04-28T21:45:00.352Z,-0.74
2023-04-28T21:47:28.570Z,-0.82
2023-04-28T21:49:56.802Z,-0.87
2023-04-28T21:52:25.076Z,-0.88
2023-04-28T21:54:53.927Z,-0.89
2023-04-28T21:57:22.199Z,-0.87
2023-04-28T21:59:50.641Z,-0.85
2023-04-28T22:02:18.978Z,-0.80
2023-04-28T22:04:47.743Z,-0.74
2023-04-28T22:07:16.429Z,-0.71
2023-04-28T22:09:44.525Z,-0.71
2023-04-28T22:12:13.088Z,-0.72
2023-04-28T22:14:41.725Z,-0.75
2023-04-28T22:17:10.021Z,-0.76
2023-04-28T22:19:38.231Z,-0.75
2023-04-28T22:22:07.814Z,-0.79
2023-04-28T22:24:35.974Z,-0.86
2023-04-28T22:27:04.400Z,-0.90
2023-04-28T22:29:32.464Z,-0.98
2023-04-28T22:32:00.651Z,-1.04
2023-04-28T22:34:29.160Z,-1.10
2023-04-28T22:36:57.254Z,-1.17
2023-04-28T22:39:27.046Z,-1.25
2023-04-28T22:41:55.860Z,-1.34
2023-04-28T22:44:24.038Z,-1.41
2023-04-28T22:46:53.061Z,-1.48
2023-04-28T22:49:25.107Z,-1.54
2023-04-28T22:51:53.213Z,-1.60
2023-04-28T22:54:21.499Z,-1.66
2023-04-28T22:56:51.281Z,-1.72
2023-04-28T22:59:20.785Z,-1.76
2023-04-28T23:01:49.162Z,-1.79
2023-04-28T23:04:18.051Z,-1.79
2023-04-28T23:06:46.394Z,-1.78
2023-04-28T23:09:14.476Z,-1.73
2023-04-28T23:11:42.784Z,-1.69
2023-04-28T23:14:10.992Z,-1.64
2023-04-28T23:16:39.268Z,-1.60
2023-04-28T23:19:07.455Z,-1.59
2023-04-28T23:21:35.688Z,-1.60
2023-04-28T23:24:03.919Z,-1.62
2023-04-28T23:26:32.096Z,-1.66
2023-04-28T23:29:00.294Z,-1.68
2023-04-28T23:31:28.861Z,-1.68
2023-04-28T23:33:57.121Z,-1.69
2023-04-28T23:36:25.292Z,-1.74
2023-04-28T23:38:53.503Z,-1.80
2023-04-28T23:41:21.541Z,-1.85
2023-04-28T23:43:50.140Z,-1.90
2023-04-28T23:46:18.710Z,-1.94
2023-04-28T23:48:46.895Z,-1.97
2023-04-28T23:51:15.100Z,-1.97
2023-04-28T23:53:43.613Z,-1.95
2023-04-28T23:56:11.725Z,-1.91
2023-04-28T23:58:40.461Z,-1.89
